CNGK1: Council Grove Lake

Data processed at Wed May 22 2019 23:50


All information presented herein is the property of the government of the United States of America and may be revised or deleted at any time without prior notice.
Dissemination of this information without the expressed written consent of the Public Affairs Office, Tulsa District U.S. Army Corps of Engineers is strictly prohibited.
These data are gathered electronically and, as presented, have not undergone any form of quality control. These data are not guaranteed to be valid or correct.
Go to home page.
Go to station list.
Go to home page.

Upstream stations:

Downstream station:
Previous Day
Next Day
Current Day
    
SHEF ID:       CNGK1     Council Grove Lake
STATION TYPE:  RESERVOIR
Flood Pool:  Bottom =  1274.00, Top =  1289.00

               PRECIP ELEVATION   STORAGE    INFLOW   RELEASE  AIR-TEMP  WIND-DIRWIND-SPEED REL-HUMID SOLAR-RAD   VOLTAGE  BAT-LOAD
                   in        ft     ac-ft       cfs       cfs         F       deg       mph         %      W/m2      volt      volt
              Ccp-Rev   Ccp-Rev   Ccp-Rev  Rev-Regi  Rev-Regi   Ccp-Rev   Ccp-Rev   Ccp-Rev   Ccp-Rev   Ccp-Rev   Ccp-Rev   Ccp-Rev
(US/Central)
05/22 00:00      0.00   1288.94    102907      2733      1269     63.28    195.10      9.50     66.43      0.00     13.57     13.29
05/22 01:00      0.00   1288.96    103008      2242      1269     62.22    199.50     11.10     70.62      0.00     13.57     13.29
05/22 02:00      0.00   1288.98    103109      2118      1265     59.85    229.00      9.20     76.13      0.00     13.58     13.29
05/22 03:00      0.00   1288.98    103109      1872      1258     57.16    226.20      6.40     79.16      0.00     13.57     13.29
05/22 04:00      0.00   1288.99    103160      1625      1258     55.15    230.90      7.20     76.64      0.00     13.44     13.29
05/22 05:00      0.00   1288.99    103160      1378      1258     53.15    235.60      6.50     80.18      0.00     13.46     13.29
05/22 06:00      0.00   1288.99    103160      1499      1255     51.60    205.80      5.80     84.14      0.00     13.58     13.29
05/22 07:00      0.00   1288.99    103160      1254      1252     50.90    193.40      4.30     85.31     26.40     13.44     13.29
05/22 08:00      0.00   1289.00    103210      1253      1252     52.47    216.70      6.80     80.72    183.40     13.46     13.29
05/22 09:00      0.00   1288.99    103160      1131      1252     54.84    238.80     10.00     73.96    374.10     13.57     13.29
05/22 10:00      0.00   1288.99    103160      1130      1255     57.40    272.50     11.30     68.85    562.50     13.57     13.29
05/22 11:00      0.00   1288.98    103109       883      1255     60.12    227.60      6.20     64.69    715.90     13.57     13.29
05/22 12:00      0.00   1288.98    103109       882      1245     63.43    192.40      6.30     59.73    844.90     13.53     13.29
05/22 13:00      0.00   1288.97    103059       880      1241     66.15    191.50      8.10     55.38    896.40     13.57     13.29
05/22 14:00      0.00   1288.96    103008       878      1245     68.47    200.10      7.80     53.83    897.90     13.57     13.29
05/22 15:00      0.00   1288.96    103008       756      1245     70.75    189.50      8.80     51.65    893.50     13.57     13.29
05/22 16:00      0.00   1288.95    102958       878      1245     72.28    194.40      7.90     50.65    819.90     13.57     13.29
05/22 17:00      0.00   1288.94    102907       755      1245     73.27    223.50      7.00     50.03    677.00     13.57     13.29
05/22 18:00      0.00   1288.94    102907       632      1241     74.01    251.50      6.00     49.65    480.40     13.57     13.29
05/22 19:00      0.00   1288.92    102806       632      1241     73.38    284.30      7.60     51.29    193.50     13.56     13.29
05/22 20:00      0.00   1288.91    102756       753      1241     72.73    305.50      8.20     56.24    145.70     13.52     13.37
05/22 21:00      0.00   1288.90    102706       630      1241     70.32    316.50      5.40     65.50     10.20     13.51     13.29
05/22 22:00      0.00   1288.90    102706       875      1241     67.60    345.70      3.90     72.64      0.00     13.51     13.29
05/22 23:00      0.00   1288.89    102655       751      1238     65.64    329.00      4.70     78.10      0.00     13.50     13.29